Terminal Aerodrome Forecast
Issued by NWS Louisville, KY

Home | Current Version | Previous Version | Text Only | Print | Product List | Glossary On
Versions: 1 2 3 4 5 6 7 8 9 10 11 12 13
000
FTUS43 KLMK 220528
TAFSDF
TAF
KSDF 220528Z 2206/2312 14006KT P6SM SCT250
     FM220900 15007KT P6SM SCT100 WS020/20035KT
     FM221300 16010KT P6SM SCT100
     FM221600 17015G22KT P6SM SCT080 BKN250
     FM222300 15008KT P6SM BKN045
     FM230200 16008KT P6SM -SHRA BKN035=

USA.gov is the U.S. government's official web portal to all federal, state and local government web resources and services.